KFOE/FOE METAR and TAF weather

Enter ICAO airport designator
Station Type Date Time Source
KFOE METAR 2020/01/23 05:53 UTC NOAA

KFOE 230553Z AUTO 19010KT 10SM OVC004 02/01 A2989 RMK AO2 RAE0457 SLP128 P0000 60000 T00170006 10017 20011 400280006 58004


Station Type Date Time Source
KFOE Decoded METAR 2020/01/23 05:53 UTC NOAA

FORBES FIELD, KS, United States (KFOE) 38-56N 95-39W 320M
Jan 23, 2020 - 12:53 AM EST / 2020.01.23 0553 UTC
Wind: from the S (190 degrees) at 12 MPH (10 KT):0
Visibility: 10 mile(s):0
Sky conditions: overcast
Precipitation last hour: A trace
Temperature: 35.1 F (1.7 C)
Dew Point: 33.1 F (0.6 C)
Relative Humidity: 92%
Pressure (altimeter): 29.89 in. Hg (1012 hPa)
Pressure tendency: 0.01 inches (0.4 hPa) lower than three hours ago
ob: KFOE 230553Z AUTO 19010KT 10SM OVC004 02/01 A2989 RMK AO2 RAE0457 SLP128 P0000 60000 T00170006 10017 20011 400280006 58004
cycle: 6

Station Type Date Time Source
KFOE TAF 2020/01/23 06:30 UTC NOAA

TAF KFOE 230529Z 2306/2406 18008KT 4SM -DZ BR OVC003
FM230800 21004KT 1SM -DZ BR OVC002
FM231400 29007KT 3SM BR OVC004
FM231800 31009KT 3SM -RASN OVC006
FM240000 33012KT 2SM -SN OVC006

Example: see airport list